createdAt,value
2022-08-22T00:02:09.218Z,2.50
2022-08-22T00:02:48.496Z,2.03
2022-08-22T00:03:07.477Z,3.22
2022-08-22T00:04:54.021Z,2.30
2022-08-22T00:07:48.356Z,2.95
2022-08-22T00:10:25.417Z,2.63
2022-08-22T00:13:06.253Z,2.60
2022-08-22T00:15:43.342Z,2.47
2022-08-22T00:18:37.945Z,2.53
2022-08-22T00:21:16.952Z,2.20
2022-08-22T00:24:01.440Z,3.00
2022-08-22T00:26:45.089Z,2.50
2022-08-22T00:29:17.649Z,2.55
2022-08-22T00:31:52.000Z,2.60
2022-08-22T00:34:32.771Z,3.05
2022-08-22T00:36:59.255Z,2.72
2022-08-22T00:39:34.021Z,2.88
2022-08-22T00:42:37.961Z,2.70
2022-08-22T00:45:19.468Z,2.80
2022-08-22T00:47:57.097Z,2.78
2022-08-22T00:50:29.812Z,3.45
2022-08-22T00:53:23.982Z,2.60
2022-08-22T00:56:10.806Z,3.00
2022-08-22T00:59:00.267Z,3.20
2022-08-22T01:02:03.866Z,2.50
2022-08-22T01:05:02.612Z,3.30
2022-08-22T01:07:41.372Z,2.92
2022-08-22T01:10:29.592Z,2.10
2022-08-22T01:13:02.801Z,2.90
2022-08-22T01:15:34.140Z,2.50
2022-08-22T01:18:21.173Z,3.40
2022-08-22T01:23:47.656Z,2.60
2022-08-22T01:26:54.657Z,2.72
2022-08-22T01:29:55.763Z,2.70
2022-08-22T01:32:57.101Z,2.30
2022-08-22T01:35:48.125Z,3.00
2022-08-22T01:38:42.757Z,2.90
2022-08-22T01:41:18.481Z,2.75
2022-08-22T01:44:03.567Z,2.70
2022-08-22T01:46:45.462Z,2.67
2022-08-22T01:49:16.664Z,2.90
2022-08-22T01:52:02.035Z,3.33
2022-08-22T01:54:43.685Z,2.80
2022-08-22T01:57:11.718Z,2.75
2022-08-22T01:59:47.670Z,2.50
2022-08-22T02:02:23.405Z,2.42
2022-08-22T02:05:19.547Z,2.90
2022-08-22T02:07:52.072Z,2.40
2022-08-22T02:10:43.370Z,2.47
2022-08-22T02:13:15.932Z,2.50
2022-08-22T02:16:03.586Z,2.53
2022-08-22T02:18:53.922Z,2.38
2022-08-22T02:22:06.754Z,2.47
2022-08-22T02:24:33.216Z,2.78
2022-08-22T02:27:18.597Z,2.13
2022-08-22T02:29:50.970Z,2.17
2022-08-22T02:32:41.877Z,2.70
2022-08-22T02:35:31.040Z,2.30
2022-08-22T02:38:03.303Z,2.20
2022-08-22T02:40:41.306Z,2.72
2022-08-22T02:43:43.640Z,2.17
2022-08-22T02:46:17.219Z,2.70
2022-08-22T02:49:18.017Z,2.83
2022-08-22T02:51:52.562Z,2.63
2022-08-22T02:54:38.517Z,2.60
2022-08-22T02:57:14.068Z,2.78
2022-08-22T03:00:30.780Z,2.35
2022-08-22T03:03:02.334Z,2.30
2022-08-22T03:05:38.275Z,2.35
2022-08-22T03:08:17.089Z,2.22
2022-08-22T03:11:27.645Z,1.98
2022-08-22T03:14:29.335Z,2.28
2022-08-22T03:17:06.144Z,2.60
2022-08-22T03:19:51.471Z,2.25
2022-08-22T03:22:25.058Z,2.13
2022-08-22T03:25:04.871Z,2.17
2022-08-22T03:27:56.595Z,1.92
2022-08-22T03:30:58.253Z,2.20
2022-08-22T03:33:28.364Z,2.50
2022-08-22T03:36:18.141Z,2.40
2022-08-22T03:38:54.561Z,2.60
2022-08-22T03:42:02.916Z,2.53
2022-08-22T03:44:38.552Z,2.53
2022-08-22T03:47:07.863Z,2.83
2022-08-22T03:49:54.080Z,2.80
2022-08-22T03:53:18.631Z,2.78
2022-08-22T03:56:04.628Z,2.60
2022-08-22T03:58:31.159Z,2.75
2022-08-22T04:01:00.406Z,2.53
2022-08-22T04:03:47.362Z,2.47
2022-08-22T04:06:43.633Z,2.92
2022-08-22T04:09:26.817Z,3.10
2022-08-22T04:12:08.909Z,2.70
2022-08-22T04:15:11.821Z,2.90
2022-08-22T04:17:57.601Z,2.90
2022-08-22T04:20:27.470Z,3.50
2022-08-22T04:23:09.785Z,3.20
2022-08-22T04:25:41.305Z,3.45
2022-08-22T04:28:30.065Z,3.75
2022-08-22T04:31:06.056Z,4.00
2022-08-22T04:33:40.151Z,3.30
2022-08-22T04:36:34.693Z,4.03
2022-08-22T04:39:20.415Z,3.55
2022-08-22T04:42:30.785Z,3.70
2022-08-22T04:44:58.053Z,3.60
2022-08-22T04:47:36.955Z,3.80
2022-08-22T04:50:11.580Z,3.88
2022-08-22T04:52:49.136Z,3.75
2022-08-22T04:55:32.933Z,3.80
2022-08-22T04:58:06.461Z,3.92
2022-08-22T05:00:48.996Z,3.17
2022-08-22T05:03:20.295Z,3.60
2022-08-22T05:05:48.752Z,3.33
2022-08-22T05:08:22.788Z,3.58
2022-08-22T05:10:51.825Z,3.65
2022-08-22T05:13:25.072Z,3.70
2022-08-22T05:16:01.376Z,4.00
2022-08-22T05:18:43.337Z,3.42
2022-08-22T05:21:13.868Z,3.65
2022-08-22T05:23:50.469Z,3.50
2022-08-22T05:26:19.241Z,3.60
2022-08-22T05:28:52.915Z,3.40
2022-08-22T05:31:31.123Z,3.80
2022-08-22T05:34:36.995Z,3.60
2022-08-22T05:37:10.592Z,3.88
2022-08-22T05:39:40.647Z,3.20
2022-08-22T05:42:13.507Z,3.55
2022-08-22T05:44:42.573Z,3.30
2022-08-22T05:47:27.486Z,4.13
2022-08-22T05:50:05.586Z,3.40
2022-08-22T05:52:59.162Z,3.38
2022-08-22T05:55:31.415Z,3.63
2022-08-22T05:58:37.774Z,3.92
2022-08-22T06:01:35.525Z,3.30
2022-08-22T06:04:08.626Z,3.50
2022-08-22T06:06:51.578Z,3.40
2022-08-22T06:09:35.586Z,2.85
2022-08-22T06:12:22.199Z,3.42
2022-08-22T06:15:21.000Z,3.25
2022-08-22T06:17:55.921Z,2.90
2022-08-22T06:23:00.040Z,2.38
2022-08-22T06:25:33.357Z,2.78
2022-08-22T06:28:09.294Z,2.63
2022-08-22T06:30:39.604Z,3.00
2022-08-22T06:33:16.122Z,2.85
2022-08-22T06:39:19.646Z,3.10
2022-08-22T06:42:14.484Z,2.78
2022-08-22T06:45:01.315Z,3.40
2022-08-22T06:47:33.179Z,2.80
2022-08-22T06:50:22.063Z,2.97
2022-08-22T06:53:00.693Z,2.95
2022-08-22T06:55:30.097Z,3.17
2022-08-22T06:58:03.984Z,3.47
2022-08-22T07:00:34.630Z,3.38
2022-08-22T07:03:23.122Z,3.58
2022-08-22T07:05:54.156Z,3.58
2022-08-22T07:08:22.898Z,3.30
2022-08-22T07:10:58.699Z,3.30
2022-08-22T07:13:28.274Z,4.03
2022-08-22T07:16:04.058Z,3.40
2022-08-22T07:18:31.556Z,3.97
2022-08-22T07:21:04.145Z,3.35
2022-08-22T07:23:36.120Z,3.47
2022-08-22T07:26:15.244Z,3.58
2022-08-22T07:28:57.847Z,3.63
2022-08-22T07:31:25.116Z,3.90
2022-08-22T07:33:55.503Z,3.80
2022-08-22T07:36:44.918Z,3.90
2022-08-22T07:39:40.443Z,3.67
2022-08-22T07:42:10.412Z,3.70
2022-08-22T07:45:10.617Z,4.30
2022-08-22T07:48:22.673Z,4.28
2022-08-22T07:50:57.712Z,3.90
2022-08-22T07:53:52.449Z,3.88
2022-08-22T07:56:23.641Z,3.88
2022-08-22T07:58:56.695Z,4.00
2022-08-22T08:01:25.444Z,3.78
2022-08-22T08:04:21.212Z,3.90
2022-08-22T08:06:52.713Z,3.88
2022-08-22T08:09:20.390Z,3.53
2022-08-22T08:11:52.543Z,3.53
2022-08-22T08:14:21.332Z,4.07
2022-08-22T08:17:00.855Z,3.55
2022-08-22T08:19:34.521Z,3.00
2022-08-22T08:22:02.308Z,3.50
2022-08-22T08:24:40.526Z,3.65
2022-08-22T08:27:35.859Z,3.75
2022-08-22T08:30:15.527Z,3.08
2022-08-22T08:32:46.335Z,3.28
2022-08-22T08:35:25.534Z,3.30
2022-08-22T08:37:59.369Z,3.15
2022-08-22T08:40:32.785Z,3.20
2022-08-22T08:43:27.629Z,3.03
2022-08-22T08:46:14.197Z,3.20
2022-08-22T08:49:33.657Z,3.10
2022-08-22T08:52:24.418Z,2.90
2022-08-22T08:55:21.841Z,2.85
2022-08-22T08:58:17.790Z,2.65
2022-08-22T09:00:50.826Z,2.90
2022-08-22T09:03:48.329Z,3.00
2022-08-22T09:06:31.051Z,2.90
2022-08-22T09:09:38.397Z,3.13
2022-08-22T09:12:21.027Z,2.65
2022-08-22T09:14:53.729Z,2.97
2022-08-22T09:17:31.921Z,3.10
2022-08-22T09:23:41.352Z,3.10
2022-08-22T09:27:08.688Z,3.15
2022-08-22T09:30:05.017Z,3.20
2022-08-22T09:32:46.894Z,3.67
2022-08-22T09:35:43.715Z,3.47
2022-08-22T09:38:36.386Z,3.00
2022-08-22T09:41:39.040Z,3.25
2022-08-22T09:44:40.836Z,3.47
2022-08-22T09:47:24.556Z,3.25
2022-08-22T09:50:18.398Z,3.15
2022-08-22T09:53:14.022Z,3.15
2022-08-22T09:55:46.264Z,3.30
2022-08-22T09:58:25.796Z,3.30
2022-08-22T10:01:12.322Z,3.28
2022-08-22T10:04:12.975Z,3.13
2022-08-22T10:07:01.584Z,3.45
2022-08-22T10:09:44.131Z,3.33
2022-08-22T10:12:19.448Z,3.20
2022-08-22T10:15:14.610Z,3.47
2022-08-22T10:18:19.905Z,3.30
2022-08-22T10:20:46.510Z,3.35
2022-08-22T10:23:21.191Z,2.90
2022-08-22T10:25:55.168Z,2.90
2022-08-22T10:28:28.599Z,3.05
2022-08-22T10:31:04.853Z,3.20
2022-08-22T10:33:44.942Z,3.13
2022-08-22T10:36:20.879Z,2.80
2022-08-22T10:38:53.557Z,3.67
2022-08-22T10:41:37.512Z,2.67
2022-08-22T10:44:06.823Z,2.75
2022-08-22T10:46:53.419Z,3.08
2022-08-22T10:49:22.501Z,2.92
2022-08-22T10:52:18.371Z,2.97
2022-08-22T10:55:00.694Z,2.92
2022-08-22T10:57:49.410Z,2.63
2022-08-22T11:00:49.803Z,2.42
2022-08-22T11:03:38.330Z,2.47
2022-08-22T11:06:25.600Z,2.33
2022-08-22T11:09:15.656Z,3.75
2022-08-22T11:11:56.157Z,2.63
2022-08-22T11:14:31.446Z,2.60
2022-08-22T11:17:17.796Z,2.75
2022-08-22T11:20:21.245Z,2.70
2022-08-22T11:23:04.975Z,2.22
2022-08-22T11:26:00.006Z,2.33
2022-08-22T11:28:43.837Z,2.70
2022-08-22T11:31:22.645Z,2.20
2022-08-22T11:33:59.292Z,2.55
2022-08-22T11:36:42.321Z,2.60
2022-08-22T11:39:31.780Z,2.33
2022-08-22T11:42:21.814Z,2.40
2022-08-22T11:44:59.065Z,2.40
2022-08-22T11:47:47.230Z,2.78
2022-08-22T11:50:35.188Z,2.33
2022-08-22T11:53:12.227Z,2.70
2022-08-22T11:55:47.274Z,2.40
2022-08-22T11:58:41.141Z,2.17
2022-08-22T12:01:22.018Z,2.17
2022-08-22T12:04:12.847Z,2.20
2022-08-22T12:06:55.878Z,2.20
2022-08-22T12:09:56.652Z,2.22
2022-08-22T12:12:55.443Z,2.00
2022-08-22T12:15:24.576Z,2.78
2022-08-22T12:17:59.953Z,2.00
2022-08-22T12:20:59.391Z,2.00
2022-08-22T12:24:00.208Z,1.90
2022-08-22T12:27:07.902Z,1.70
2022-08-22T12:30:03.370Z,2.05
2022-08-22T12:32:57.233Z,1.95
2022-08-22T12:35:42.225Z,2.20
2022-08-22T12:38:44.185Z,1.83
2022-08-22T12:41:48.291Z,1.92
2022-08-22T12:44:39.727Z,1.90
2022-08-22T12:47:12.265Z,2.38
2022-08-22T12:49:49.924Z,1.83
2022-08-22T12:52:55.584Z,1.98
2022-08-22T12:55:25.304Z,2.47
2022-08-22T12:58:22.494Z,2.10
2022-08-22T13:00:50.798Z,2.10
2022-08-22T13:03:26.865Z,2.30
2022-08-22T13:05:59.859Z,2.25
2022-08-22T13:08:43.514Z,2.20
2022-08-22T13:11:22.444Z,2.72
2022-08-22T13:13:59.862Z,2.70
2022-08-22T13:16:39.124Z,2.33
2022-08-22T13:19:13.489Z,2.20
2022-08-22T13:21:48.979Z,2.50
2022-08-22T13:24:22.774Z,1.95
2022-08-22T13:27:14.558Z,1.90
2022-08-22T13:29:49.427Z,2.03
2022-08-22T13:32:39.627Z,1.85
2022-08-22T13:35:24.356Z,2.40
2022-08-22T13:38:03.494Z,2.28
2022-08-22T13:40:32.643Z,2.25
2022-08-22T13:43:07.552Z,2.13
2022-08-22T13:45:36.956Z,2.22
2022-08-22T13:48:13.750Z,2.30
2022-08-22T13:51:08.171Z,1.98
2022-08-22T13:53:45.223Z,1.98
2022-08-22T13:56:34.992Z,1.98
2022-08-22T13:59:06.561Z,2.38
2022-08-22T14:01:40.839Z,2.05
2022-08-22T14:04:33.401Z,2.40
2022-08-22T14:07:06.052Z,1.85
2022-08-22T14:09:45.340Z,1.85
2022-08-22T14:12:26.002Z,2.13
2022-08-22T14:14:59.625Z,1.60
2022-08-22T14:17:48.920Z,2.10
2022-08-22T14:20:32.245Z,1.80
2022-08-22T14:23:18.615Z,1.90
2022-08-22T14:25:45.526Z,1.40
2022-08-22T14:28:27.799Z,2.40
2022-08-22T14:31:14.517Z,2.10
2022-08-22T14:33:52.562Z,2.15
2022-08-22T14:36:27.170Z,2.35
2022-08-22T14:39:02.050Z,2.20
2022-08-22T14:42:04.125Z,1.95
2022-08-22T14:44:55.702Z,1.73
2022-08-22T14:47:54.305Z,2.10
2022-08-22T14:50:40.586Z,1.98
2022-08-22T14:53:19.116Z,1.77
2022-08-22T14:56:13.851Z,2.03
2022-08-22T14:59:20.511Z,1.83
2022-08-22T15:02:05.541Z,1.90
2022-08-22T15:04:48.195Z,1.80
2022-08-22T15:07:27.537Z,2.00
2022-08-22T15:10:03.138Z,2.13
2022-08-22T15:15:28.545Z,1.65
2022-08-22T15:17:55.744Z,1.95
2022-08-22T15:20:38.361Z,1.90
2022-08-22T15:23:21.910Z,1.77
2022-08-22T15:26:13.166Z,1.88
2022-08-22T15:28:52.268Z,1.80
2022-08-22T15:31:20.630Z,1.80
2022-08-22T15:33:48.581Z,1.70
2022-08-22T15:36:21.619Z,2.00
2022-08-22T15:38:50.231Z,2.00
2022-08-22T15:41:31.072Z,2.08
2022-08-22T15:44:14.890Z,1.85
2022-08-22T15:47:10.803Z,1.80
2022-08-22T15:50:14.641Z,1.92
2022-08-22T15:53:41.352Z,1.92
2022-08-22T15:56:16.636Z,2.13
2022-08-22T15:58:48.905Z,1.75
2022-08-22T16:01:25.629Z,2.35
2022-08-22T16:04:00.878Z,1.80
2022-08-22T16:06:58.133Z,2.00
2022-08-22T16:09:45.554Z,1.92
2022-08-22T16:12:40.634Z,1.67
2022-08-22T16:15:45.509Z,2.45
2022-08-22T16:18:39.321Z,2.13
2022-08-22T16:21:37.822Z,1.80
2022-08-22T16:24:04.436Z,2.03
2022-08-22T16:26:31.005Z,1.73
2022-08-22T16:29:04.409Z,1.80
2022-08-22T16:31:31.021Z,2.03
2022-08-22T16:34:16.346Z,2.20
2022-08-22T16:37:12.089Z,2.00
2022-08-22T16:39:46.952Z,1.73
2022-08-22T16:42:13.663Z,2.10
2022-08-22T16:44:45.886Z,1.88
2022-08-22T16:47:14.439Z,2.00
2022-08-22T16:50:28.012Z,1.83
2022-08-22T16:53:10.184Z,1.83
2022-08-22T16:55:44.413Z,2.17
2022-08-22T16:58:16.423Z,2.00
2022-08-22T17:01:10.606Z,2.15
2022-08-22T17:03:55.940Z,2.13
2022-08-22T17:06:59.511Z,2.05
2022-08-22T17:09:32.304Z,2.08
2022-08-22T17:12:20.529Z,1.85
2022-08-22T17:15:20.581Z,1.75
2022-08-22T17:18:12.097Z,1.85
2022-08-22T17:21:01.460Z,2.00
2022-08-22T17:24:06.141Z,1.63
2022-08-22T17:26:48.949Z,1.90
2022-08-22T17:29:32.502Z,2.15
2022-08-22T17:32:25.058Z,1.98
2022-08-22T17:35:10.353Z,1.70
2022-08-22T17:37:49.261Z,1.85
2022-08-22T17:40:45.605Z,2.00
2022-08-22T17:43:27.499Z,1.83
2022-08-22T17:46:18.626Z,1.73
2022-08-22T17:49:22.705Z,1.63
2022-08-22T17:52:06.390Z,2.03
2022-08-22T17:54:48.311Z,1.80
2022-08-22T17:57:33.993Z,1.95
2022-08-22T18:00:12.242Z,1.93
2022-08-22T18:02:53.451Z,1.77
2022-08-22T18:05:24.957Z,1.65
2022-08-22T18:11:31.227Z,2.10
2022-08-22T18:14:18.578Z,1.85
2022-08-22T18:16:49.970Z,2.10
2022-08-22T18:19:54.002Z,1.65
2022-08-22T18:22:39.806Z,1.70
2022-08-22T18:25:27.076Z,1.63
2022-08-22T18:28:05.273Z,2.08
2022-08-22T18:30:54.866Z,2.00
2022-08-22T18:33:34.357Z,1.90
2022-08-22T18:36:24.698Z,2.30
2022-08-22T18:39:00.018Z,1.77
2022-08-22T18:41:43.058Z,2.00
2022-08-22T18:44:22.792Z,1.77
2022-08-22T18:46:52.552Z,1.77
2022-08-22T18:49:21.885Z,1.67
2022-08-22T18:52:09.437Z,1.90
2022-08-22T18:54:44.943Z,2.08
2022-08-22T18:57:30.798Z,1.85
2022-08-22T19:00:24.371Z,1.98
2022-08-22T19:03:18.225Z,1.85
2022-08-22T19:05:47.715Z,2.15
2022-08-22T19:08:23.255Z,1.77
2022-08-22T19:11:22.979Z,2.15
2022-08-22T19:14:21.579Z,1.60
2022-08-22T19:17:03.740Z,2.13
2022-08-22T19:20:42.921Z,2.58
2022-08-22T19:23:34.214Z,2.28
2022-08-22T19:26:28.770Z,1.70
2022-08-22T19:29:10.528Z,1.70
2022-08-22T19:31:42.599Z,2.00
2022-08-22T19:34:18.162Z,1.80
2022-08-22T19:36:46.306Z,1.98
2022-08-22T19:39:41.661Z,2.30
2022-08-22T19:42:20.457Z,2.22
2022-08-22T19:45:02.247Z,2.00
2022-08-22T19:47:40.960Z,2.33
2022-08-22T19:50:19.882Z,2.03
2022-08-22T19:52:56.408Z,2.50
2022-08-22T19:55:37.910Z,1.80
2022-08-22T19:58:09.234Z,2.08
2022-08-22T20:01:09.517Z,1.92
2022-08-22T20:03:53.261Z,2.08
2022-08-22T20:06:46.041Z,2.30
2022-08-22T20:09:31.300Z,1.70
2022-08-22T20:12:15.090Z,2.25
2022-08-22T20:14:44.636Z,2.13
2022-08-22T20:17:39.228Z,1.80
2022-08-22T20:20:19.650Z,1.95
2022-08-22T20:23:02.949Z,2.13
2022-08-22T20:25:42.731Z,2.00
2022-08-22T20:28:40.970Z,2.28
2022-08-22T20:31:21.452Z,2.00
2022-08-22T20:33:52.939Z,2.47
2022-08-22T20:36:28.819Z,2.63
2022-08-22T20:39:05.991Z,2.00
2022-08-22T20:41:40.438Z,2.38
2022-08-22T20:44:40.605Z,2.30
2022-08-22T20:47:19.393Z,2.30
2022-08-22T20:49:54.677Z,2.55
2022-08-22T20:52:36.492Z,2.47
2022-08-22T20:55:15.065Z,2.50
2022-08-22T20:58:06.032Z,2.67
2022-08-22T21:00:54.641Z,3.20
2022-08-22T21:03:38.751Z,2.53
2022-08-22T21:06:21.442Z,2.38
2022-08-22T21:09:11.903Z,2.30
2022-08-22T21:11:44.860Z,3.00
2022-08-22T21:14:23.066Z,2.38
2022-08-22T21:16:49.982Z,2.38
2022-08-22T21:19:19.518Z,2.38
2022-08-22T21:21:46.224Z,2.33
2022-08-22T21:24:12.959Z,2.53
2022-08-22T21:26:49.089Z,2.30
2022-08-22T21:29:15.693Z,2.72
2022-08-22T21:31:59.245Z,2.63
2022-08-22T21:34:43.597Z,2.50
2022-08-22T21:37:17.474Z,2.67
2022-08-22T21:39:49.840Z,2.47
2022-08-22T21:42:36.275Z,2.75
2022-08-22T21:45:11.915Z,2.50
2022-08-22T21:47:41.321Z,2.60
2022-08-22T21:50:25.862Z,2.88
2022-08-22T21:52:55.276Z,2.78
2022-08-22T21:55:21.782Z,2.58
2022-08-22T21:58:37.217Z,2.80
2022-08-22T22:01:27.677Z,2.63
2022-08-22T22:03:54.955Z,2.78
2022-08-22T22:06:21.573Z,2.80
2022-08-22T22:08:48.895Z,3.60
2022-08-22T22:11:17.243Z,3.55
2022-08-22T22:13:45.040Z,3.35
2022-08-22T22:16:12.438Z,3.20
2022-08-22T22:18:39.680Z,3.30
2022-08-22T22:21:07.866Z,2.72
2022-08-22T22:23:34.493Z,3.22
2022-08-22T22:26:03.454Z,2.90
2022-08-22T22:28:33.369Z,2.72
2022-08-22T22:31:00.747Z,3.15
2022-08-22T22:33:30.909Z,3.38
2022-08-22T22:36:02.853Z,3.47
2022-08-22T22:38:29.444Z,3.63
2022-08-22T22:40:56.559Z,3.67
2022-08-22T22:43:23.517Z,3.40
2022-08-22T22:45:50.144Z,3.03
2022-08-22T22:48:22.271Z,3.22
2022-08-22T22:50:51.485Z,3.28
2022-08-22T22:53:19.464Z,3.40
2022-08-22T22:55:48.113Z,3.47
2022-08-22T22:58:27.162Z,3.28
2022-08-22T23:00:53.858Z,3.08
2022-08-22T23:03:21.513Z,3.05
2022-08-22T23:05:48.508Z,3.05
2022-08-22T23:08:15.116Z,3.03
2022-08-22T23:10:41.776Z,3.30
2022-08-22T23:13:08.359Z,3.00
2022-08-22T23:15:35.053Z,3.65
2022-08-22T23:18:02.405Z,3.28
2022-08-22T23:20:29.033Z,3.05
2022-08-22T23:22:55.587Z,3.50
2022-08-22T23:25:22.139Z,3.40
2022-08-22T23:27:52.599Z,3.22
2022-08-22T23:30:20.045Z,3.25
2022-08-22T23:32:46.622Z,3.05
2022-08-22T23:35:13.545Z,3.60
2022-08-22T23:37:40.141Z,3.33
2022-08-22T23:40:08.640Z,3.08
2022-08-22T23:42:35.478Z,3.40
2022-08-22T23:45:02.145Z,3.50
2022-08-22T23:47:28.736Z,3.40
2022-08-22T23:49:55.351Z,3.13
2022-08-22T23:52:21.974Z,3.25
2022-08-22T23:54:48.617Z,3.20
2022-08-22T23:57:21.128Z,3.30
2022-08-22T23:59:57.723Z,3.13
